Time;durP1;ratioP1;P1;durP2;ratioP2;P2;SDS_P1;SDS_P2;PMS_P1;PMS_P2;Temp;Humidity;BMP_temperature;BMP_pressure;BME280_temperature;BME280_humidity;BME280_pressure;Samples;Min_cycle;Max_cycle;Signal;HPM_P1;HPM_P2
2022/03/19 00:02:21;;;;;;;75.93;48.57;;;;;;;10.28;54.53;99551.84;5048246;28;20199;-71
2022/03/19 00:04:47;;;;;;;76.20;48.77;;;;;;;10.35;54.16;99548.84;5048219;28;20955;-71
2022/03/19 00:07:13;;;;;;;78.80;47.83;;;;;;;10.31;54.22;99548.19;5045644;28;20455;-69
2022/03/19 00:09:39;;;;;;;72.70;46.90;;;;;;;10.24;54.43;99547.72;5048528;28;20189;-71
2022/03/19 00:12:06;;;;;;;74.67;48.40;;;;;;;10.26;54.34;99552.91;5045972;28;20426;-70
2022/03/19 00:14:31;;;;;;;79.83;48.80;;;;;;;10.24;54.27;99557.38;5048157;28;20467;-71
2022/03/19 00:16:57;;;;;;;81.47;47.50;;;;;;;10.26;54.50;99551.09;5046035;28;20437;-70
2022/03/19 00:19:23;;;;;;;79.57;48.00;;;;;;;10.22;54.31;99554.00;5049553;28;20229;-70
2022/03/19 00:21:49;;;;;;;76.60;47.80;;;;;;;10.26;54.46;99555.50;5047891;28;20261;-69
2022/03/19 00:24:15;;;;;;;85.70;49.30;;;;;;;10.22;54.12;99549.59;5031401;28;20469;-70
2022/03/19 00:26:40;;;;;;;79.17;48.90;;;;;;;10.12;54.65;99556.31;5048340;28;20434;-70
2022/03/19 00:29:06;;;;;;;78.60;48.97;;;;;;;10.07;54.71;99558.41;5045240;28;20183;-71
2022/03/19 00:31:31;;;;;;;74.80;46.73;;;;;;;10.04;54.43;99545.47;5049676;28;20182;-70
2022/03/19 00:33:57;;;;;;;71.07;47.90;;;;;;;10.06;54.72;99554.09;5048215;28;20238;-72
2022/03/19 00:36:22;;;;;;;76.50;49.27;;;;;;;9.94;54.52;99550.41;5048319;28;20184;-71
2022/03/19 00:38:48;;;;;;;77.77;49.10;;;;;;;9.87;54.74;99557.78;5048327;28;20570;-70
2022/03/19 00:41:13;;;;;;;73.50;47.67;;;;;;;9.88;54.80;99556.84;5046528;28;20223;-70
2022/03/19 00:43:39;;;;;;;75.00;47.20;;;;;;;9.83;55.03;99548.41;5048617;28;20206;-71
2022/03/19 00:46:04;;;;;;;76.47;47.17;;;;;;;9.86;54.96;99553.47;5064630;28;20280;-72
2022/03/19 00:48:30;;;;;;;77.57;48.20;;;;;;;9.90;54.66;99551.50;5070223;28;20832;-71
2022/03/19 00:50:55;;;;;;;77.70;47.50;;;;;;;9.88;54.91;99546.38;5070472;28;20645;-71
2022/03/19 00:53:21;;;;;;;73.60;47.37;;;;;;;9.93;54.64;99544.34;5061683;28;20186;-71
2022/03/19 00:55:46;;;;;;;79.63;47.67;;;;;;;9.86;54.05;99543.00;5069978;28;20222;-72
2022/03/19 00:58:12;;;;;;;75.17;47.83;;;;;;;9.78;54.41;99535.59;5042938;28;20229;-71
2022/03/19 01:00:38;;;;;;;78.13;45.77;;;;;;;9.71;54.74;99543.88;5070584;28;20178;-72
2022/03/19 01:03:04;;;;;;;76.03;47.53;;;;;;;9.75;54.40;99541.03;5052118;28;20499;-72
2022/03/19 01:05:29;;;;;;;75.50;46.00;;;;;;;9.82;54.11;99539.72;5069635;28;20532;-71
2022/03/19 01:07:55;;;;;;;68.03;44.87;;;;;;;9.78;54.09;99534.75;5072003;28;20266;-72
2022/03/19 01:10:23;;;;;;;68.00;45.67;;;;;;;9.82;54.32;99542.34;5055777;28;20240;-71
2022/03/19 01:12:50;;;;;;;71.57;45.90;;;;;;;9.73;54.08;99531.56;5072161;28;20463;-71
2022/03/19 01:15:16;;;;;;;73.20;46.93;;;;;;;9.73;54.02;99534.19;5065030;28;20468;-70
2022/03/19 01:17:42;;;;;;;70.83;46.77;;;;;;;9.72;54.33;99530.72;5072764;28;20469;-71
2022/03/19 01:20:10;;;;;;;70.33;44.63;;;;;;;9.74;53.89;99530.63;5073264;28;20424;-72
2022/03/19 01:22:37;;;;;;;72.77;44.83;;;;;;;9.68;53.86;99530.06;5065453;28;20681;-71
2022/03/19 01:25:05;;;;;;;69.93;47.10;;;;;;;9.74;54.22;99528.00;5072754;28;20515;-70
2022/03/19 01:27:34;;;;;;;71.53;45.30;;;;;;;9.72;53.94;99529.88;5072315;28;20417;-69
2022/03/19 01:29:59;;;;;;;70.30;46.60;;;;;;;9.75;53.50;99527.06;5072039;28;20455;-70
2022/03/19 01:32:25;;;;;;;73.53;44.63;;;;;;;9.78;52.99;99532.97;5073425;28;20424;-70
2022/03/19 01:34:51;;;;;;;72.43;46.03;;;;;;;9.86;53.07;99527.28;5071978;28;20202;-70
2022/03/19 01:37:16;;;;;;;67.07;44.10;;;;;;;9.74;53.26;99523.63;5073039;28;20432;-70
2022/03/19 01:39:41;;;;;;;72.17;44.10;;;;;;;9.78;53.20;99534.75;5071874;28;20218;-71
2022/03/19 01:42:07;;;;;;;76.03;46.30;;;;;;;9.77;53.27;99527.84;5073396;28;20186;-70
2022/03/19 01:44:33;;;;;;;68.60;44.83;;;;;;;9.75;52.82;99524.47;5072716;28;20263;-70
2022/03/19 01:47:08;;;;;;;74.80;46.23;;;;;;;9.80;52.94;99527.66;5073280;28;20615;-71
2022/03/19 01:49:33;;;;;;;70.17;43.97;;;;;;;9.78;53.18;99516.44;5056899;28;20637;-70
2022/03/19 01:51:59;;;;;;;71.60;43.20;;;;;;;9.79;52.87;99521.56;5066244;28;20433;-70
2022/03/19 01:54:33;;;;;;;71.33;43.53;;;;;;;9.76;52.98;99515.66;5071799;28;20210;-72
2022/03/19 01:56:59;;;;;;;62.17;43.13;;;;;;;9.83;52.95;99520.47;5071730;28;20223;-71
2022/03/19 01:59:28;;;;;;;70.03;44.70;;;;;;;9.68;52.52;99519.59;5071676;28;20804;-70
2022/03/19 02:01:53;;;;;;;67.53;43.80;;;;;;;9.72;52.37;99519.38;5072886;28;20425;-71
2022/03/19 02:04:19;;;;;;;64.83;42.60;;;;;;;9.74;52.77;99512.28;5071382;28;20490;-72
2022/03/19 02:06:45;;;;;;;61.57;41.60;;;;;;;9.75;52.38;99508.75;5070836;28;20186;-70
2022/03/19 02:09:11;;;;;;;63.33;41.50;;;;;;;9.82;52.65;99517.94;5063375;28;20440;-69
2022/03/19 02:11:36;;;;;;;64.37;41.73;;;;;;;9.78;52.78;99509.41;5072975;28;20420;-71
2022/03/19 02:14:03;;;;;;;64.60;41.73;;;;;;;9.81;52.46;99511.00;5068086;28;20286;-70
2022/03/19 02:16:29;;;;;;;64.47;43.30;;;;;;;9.84;52.31;99502.94;5066920;28;20240;-71
2022/03/19 02:18:59;;;;;;;63.23;43.80;;;;;;;9.86;52.24;99516.81;5032431;28;20409;-70
2022/03/19 02:21:25;;;;;;;68.73;43.37;;;;;;;9.82;51.82;99512.69;5036105;28;20482;-70
2022/03/19 02:26:44;;;;;;;66.03;42.87;;;;;;;9.85;52.16;99509.88;5072347;28;20198;-70
2022/03/19 02:29:10;;;;;;;67.23;43.67;;;;;;;9.88;52.17;99517.56;5072351;28;20462;-70
2022/03/19 02:31:37;;;;;;;71.60;41.40;;;;;;;9.87;51.70;99502.78;5072364;28;20428;-70
2022/03/19 02:34:02;;;;;;;65.00;41.80;;;;;;;9.83;51.60;99501.25;5070569;28;20450;-71
2022/03/19 02:36:28;;;;;;;66.60;42.77;;;;;;;9.72;51.76;99499.31;5071721;28;20429;-69
2022/03/19 02:38:53;;;;;;;66.97;43.43;;;;;;;9.73;52.05;99500.13;5072322;28;20262;-70
2022/03/19 02:41:18;;;;;;;63.70;41.70;;;;;;;9.71;52.10;99492.38;5071809;28;20270;-70
2022/03/19 02:43:48;;;;;;;63.83;42.17;;;;;;;9.76;51.92;99495.56;5071979;28;20233;-70
2022/03/19 02:46:14;;;;;;;62.27;41.13;;;;;;;9.81;51.40;99497.91;5070349;28;20195;-69
2022/03/19 02:48:39;;;;;;;62.77;41.67;;;;;;;9.80;51.84;99494.44;5072514;28;20424;-71
2022/03/19 02:51:08;;;;;;;61.90;40.90;;;;;;;9.81;51.67;99500.53;5061577;28;20528;-70
2022/03/19 02:53:34;;;;;;;63.67;41.57;;;;;;;9.74;51.37;99497.44;5061613;28;20183;-73
2022/03/19 02:56:00;;;;;;;58.57;40.10;;;;;;;9.73;51.22;99497.50;5071462;28;20436;-71
2022/03/19 02:58:25;;;;;;;57.93;39.70;;;;;;;9.76;52.10;99489.47;5053792;28;20523;-71
2022/03/19 03:00:51;;;;;;;73.83;41.70;;;;;;;9.71;51.94;99494.13;5053618;28;20613;-72
2022/03/19 03:03:17;;;;;;;65.13;42.47;;;;;;;9.70;51.53;99490.69;5072857;28;20217;-72
2022/03/19 03:05:43;;;;;;;68.57;44.33;;;;;;;9.70;51.91;99492.47;5078785;28;20266;-74
2022/03/19 03:08:08;;;;;;;66.07;41.00;;;;;;;9.74;51.47;99486.09;5076653;28;20194;-73
2022/03/19 03:10:34;;;;;;;63.30;41.10;;;;;;;9.61;51.77;99494.69;5075926;28;20519;-71
2022/03/19 03:12:59;;;;;;;66.43;42.90;;;;;;;9.70;51.63;99489.84;5079332;28;20187;-71
2022/03/19 03:15:25;;;;;;;67.77;41.40;;;;;;;9.77;51.48;99489.38;5071981;28;20202;-72
2022/03/19 03:17:51;;;;;;;66.73;42.63;;;;;;;9.76;51.64;99489.47;5081710;28;20192;-70
2022/03/19 03:20:16;;;;;;;61.80;40.97;;;;;;;9.67;51.44;99486.47;5081504;28;20213;-71
2022/03/19 03:22:44;;;;;;;61.37;41.00;;;;;;;9.63;51.28;99484.97;5064688;28;20202;-70
2022/03/19 03:25:10;;;;;;;65.67;42.50;;;;;;;9.73;51.03;99485.28;5071462;28;20206;-71
2022/03/19 03:27:36;;;;;;;62.33;38.93;;;;;;;9.75;51.26;99487.78;5071751;28;20421;-71
2022/03/19 03:30:02;;;;;;;65.73;43.57;;;;;;;9.63;51.25;99484.97;5069044;28;20790;-70
2022/03/19 03:32:28;;;;;;;63.17;40.43;;;;;;;9.64;51.35;99484.03;5069910;28;20316;-73
2022/03/19 03:34:53;;;;;;;62.30;40.67;;;;;;;9.59;51.74;99483.44;5070983;28;20905;-70
2022/03/19 03:37:19;;;;;;;60.50;41.40;;;;;;;9.60;51.13;99485.13;5062878;28;20263;-70
2022/03/19 03:39:44;;;;;;;58.20;39.77;;;;;;;9.60;50.91;99482.53;5071480;28;20182;-71
2022/03/19 03:42:09;;;;;;;60.00;39.83;;;;;;;9.66;51.19;99483.94;5071054;28;20193;-69
2022/03/19 03:44:35;;;;;;;62.90;41.37;;;;;;;9.65;50.11;99480.50;5070385;28;20328;-71
2022/03/19 03:47:00;;;;;;;61.50;39.33;;;;;;;9.64;50.69;99486.66;5071099;28;20186;-71
2022/03/19 03:49:26;;;;;;;56.40;37.43;;;;;;;9.57;50.41;99481.88;5070650;28;20186;-70
2022/03/19 03:51:52;;;;;;;56.77;38.40;;;;;;;9.58;50.66;99476.53;5064937;28;20267;-71
2022/03/19 03:54:17;;;;;;;61.87;39.67;;;;;;;9.51;50.81;99480.44;5067326;28;20681;-70
2022/03/19 03:56:42;;;;;;;60.03;40.20;;;;;;;9.41;51.23;99474.91;5069622;28;20190;-70
2022/03/19 03:59:08;;;;;;;60.83;37.83;;;;;;;9.47;51.08;99479.78;5061621;28;20178;-70
2022/03/19 04:01:34;;;;;;;65.70;40.70;;;;;;;9.48;50.72;99467.53;5069584;28;20205;-71
2022/03/19 04:03:59;;;;;;;57.73;39.37;;;;;;;9.48;50.64;99470.16;5069229;28;20889;-72
2022/03/19 04:06:25;;;;;;;57.17;38.60;;;;;;;9.54;50.72;99469.81;5070071;28;20310;-70
2022/03/19 04:08:50;;;;;;;62.27;39.63;;;;;;;9.57;50.61;99480.09;5062118;28;20193;-70
2022/03/19 04:11:16;;;;;;;59.53;39.00;;;;;;;9.58;50.71;99470.47;5070692;28;20227;-71
2022/03/19 04:13:41;;;;;;;59.37;38.70;;;;;;;9.57;50.44;99472.25;5068770;28;20650;-69
2022/03/19 04:16:07;;;;;;;64.23;40.80;;;;;;;9.61;50.14;99468.50;5066785;28;20197;-70
2022/03/19 04:18:32;;;;;;;59.17;39.40;;;;;;;9.63;50.21;99469.25;5070556;28;20194;-70
2022/03/19 04:20:57;;;;;;;60.00;37.83;;;;;;;9.65;50.21;99467.41;5070911;28;20186;-69
2022/03/19 04:23:23;;;;;;;61.93;39.07;;;;;;;9.57;50.26;99466.16;5060243;28;20296;-71
2022/03/19 04:25:48;;;;;;;65.10;41.00;;;;;;;9.57;50.21;99466.16;5069784;28;21042;-72
2022/03/19 04:28:14;;;;;;;66.03;43.03;;;;;;;9.48;50.78;99462.31;5070457;28;20189;-70
2022/03/19 04:30:40;;;;;;;65.90;39.37;;;;;;;9.56;50.42;99461.84;5070523;28;20217;-70
2022/03/19 04:33:06;;;;;;;62.53;38.30;;;;;;;9.53;50.49;99470.75;5046239;28;20194;-70
2022/03/19 04:38:19;;;;;;;58.60;37.50;;;;;;;9.57;50.58;99464.41;5069091;28;20200;-69
2022/03/19 04:40:45;;;;;;;61.53;38.43;;;;;;;9.55;49.93;99466.25;5054343;28;20801;-71
2022/03/19 04:43:11;;;;;;;59.63;38.80;;;;;;;9.47;50.66;99460.63;5048868;28;20527;-69
2022/03/19 04:45:38;;;;;;;66.00;37.50;;;;;;;9.42;50.87;99462.69;5052512;28;20944;-70
2022/03/19 04:48:04;;;;;;;62.60;40.13;;;;;;;9.48;50.19;99459.69;5061298;28;20835;-69
2022/03/19 04:50:30;;;;;;;61.07;37.57;;;;;;;9.42;50.07;99466.13;5053863;28;20478;-69
2022/03/19 04:52:56;;;;;;;64.23;40.10;;;;;;;9.45;50.25;99459.88;5049431;28;21087;-69
2022/03/19 04:55:21;;;;;;;61.67;40.67;;;;;;;9.47;50.14;99465.84;5052828;28;20211;-71
2022/03/19 04:57:48;;;;;;;68.37;41.07;;;;;;;9.45;50.02;99470.34;5054440;28;20669;-70
2022/03/19 05:00:16;;;;;;;56.23;38.07;;;;;;;9.38;50.24;99460.22;5046312;28;20212;-70
2022/03/19 05:02:43;;;;;;;61.30;38.93;;;;;;;9.28;50.82;99469.56;5034251;28;20816;-71
2022/03/19 05:05:08;;;;;;;60.70;40.23;;;;;;;9.22;50.88;99454.19;5050420;28;20453;-70
2022/03/19 05:07:35;;;;;;;63.00;39.33;;;;;;;9.19;50.45;99464.84;5054470;28;20463;-70
2022/03/19 05:12:48;;;;;;;60.43;37.83;;;;;;;9.23;51.03;99453.25;5047907;28;20922;-70
2022/03/19 05:15:15;;;;;;;63.67;39.00;;;;;;;9.24;50.00;99446.28;5049012;28;20525;-71
2022/03/19 05:17:41;;;;;;;62.73;37.43;;;;;;;9.20;50.64;99453.44;5053077;28;20320;-70
2022/03/19 05:20:07;;;;;;;58.93;38.33;;;;;;;9.13;50.31;99449.50;5052521;28;20546;-70
2022/03/19 05:22:33;;;;;;;65.73;38.00;;;;;;;9.08;50.52;99447.16;5044130;28;20839;-71
2022/03/19 05:24:58;;;;;;;62.13;37.10;;;;;;;8.99;50.69;99443.28;5053160;28;20445;-71
2022/03/19 05:27:24;;;;;;;57.43;37.00;;;;;;;8.94;50.63;99442.72;5051816;28;20190;-69
2022/03/19 05:29:50;;;;;;;58.40;38.80;;;;;;;8.86;51.04;99439.66;5048517;28;20183;-69
2022/03/19 05:32:16;;;;;;;57.97;38.17;;;;;;;8.93;50.93;99448.00;5052494;28;20795;-71
2022/03/19 05:34:42;;;;;;;58.97;37.50;;;;;;;8.86;50.47;99442.28;5050886;28;20226;-70
2022/03/19 05:37:09;;;;;;;59.63;37.33;;;;;;;8.69;51.41;99438.88;5059998;28;20209;-71
2022/03/19 05:39:34;;;;;;;68.07;37.40;;;;;;;8.82;51.61;99443.41;5053558;28;20422;-71
2022/03/19 05:42:00;;;;;;;60.20;39.37;;;;;;;8.90;50.81;99439.41;5050503;28;20485;-72
2022/03/19 05:44:25;;;;;;;65.43;38.23;;;;;;;8.93;50.88;99438.41;5060466;28;20203;-71
2022/03/19 05:46:51;;;;;;;63.47;39.13;;;;;;;8.93;50.75;99443.66;5053140;28;20305;-70
2022/03/19 05:49:16;;;;;;;59.83;39.70;;;;;;;8.89;50.40;99436.88;5052139;28;20187;-71
2022/03/19 05:51:42;;;;;;;63.43;40.97;;;;;;;8.83;51.04;99438.09;5053298;28;20182;-70
2022/03/19 05:54:09;;;;;;;63.37;40.20;;;;;;;8.96;50.78;99432.97;5049714;28;20602;-70
2022/03/19 05:56:34;;;;;;;60.43;38.83;;;;;;;9.07;49.85;99435.81;5052550;28;20564;-72
2022/03/19 05:59:00;;;;;;;58.90;37.80;;;;;;;9.17;50.23;99445.78;5053178;28;20429;-72
2022/03/19 06:01:28;;;;;;;64.40;40.50;;;;;;;9.24;50.05;99436.63;5046471;28;20245;-70
2022/03/19 06:03:54;;;;;;;63.53;40.33;;;;;;;9.36;49.75;99441.16;5051667;28;20238;-71
2022/03/19 06:06:20;;;;;;;65.77;41.10;;;;;;;9.46;49.63;99440.59;5051645;28;20436;-70
2022/03/19 06:08:45;;;;;;;66.50;41.60;;;;;;;9.48;49.52;99442.22;5052793;28;20817;-69
2022/03/19 06:11:11;;;;;;;72.57;45.37;;;;;;;9.47;49.43;99442.28;5051827;28;20178;-72
2022/03/19 06:13:36;;;;;;;82.87;51.93;;;;;;;9.45;49.81;99444.19;5053376;28;20242;-70
2022/03/19 06:16:02;;;;;;;129.97;80.07;;;;;;;9.47;49.87;99437.91;5050953;28;20280;-71
2022/03/19 06:18:27;;;;;;;130.20;76.60;;;;;;;9.51;49.66;99435.94;5051106;28;20206;-70
2022/03/19 06:20:53;;;;;;;147.10;84.27;;;;;;;9.53;50.09;99434.91;5051018;28;20591;-68
2022/03/19 06:23:18;;;;;;;130.23;77.90;;;;;;;9.58;50.15;99434.63;5052124;28;20211;-71
2022/03/19 06:25:44;;;;;;;98.63;56.73;;;;;;;9.51;50.29;99436.78;5051690;28;20201;-70
2022/03/19 06:28:09;;;;;;;90.20;52.80;;;;;;;9.70;49.82;99446.16;5044439;28;20243;-70
2022/03/19 06:30:37;;;;;;;82.37;49.30;;;;;;;9.78;50.42;99440.47;5051178;28;20270;-69
2022/03/19 06:33:06;;;;;;;92.53;53.63;;;;;;;9.85;50.56;99439.16;5058441;28;20189;-69
2022/03/19 06:38:17;;;;;;;78.93;49.70;;;;;;;10.04;50.33;99431.00;5052034;28;20505;-71
2022/03/19 06:40:42;;;;;;;72.97;47.10;;;;;;;10.11;48.75;99434.09;5049112;28;20532;-73
2022/03/19 06:43:07;;;;;;;65.30;44.60;;;;;;;10.19;48.98;99439.72;5040846;28;20226;-70
2022/03/19 06:45:33;;;;;;;65.13;43.27;;;;;;;10.22;48.67;99434.28;5050021;28;20696;-71
2022/03/19 06:47:58;;;;;;;62.80;38.57;;;;;;;10.37;47.61;99423.78;5052047;28;20183;-71
2022/03/19 06:50:24;;;;;;;54.33;36.67;;;;;;;10.53;47.20;99429.75;5052124;28;20178;-71
2022/03/19 06:52:49;;;;;;;60.50;37.50;;;;;;;10.58;47.44;99432.94;5049693;28;20183;-72
2022/03/19 06:55:15;;;;;;;62.60;36.83;;;;;;;10.62;45.82;99424.84;5067170;28;20614;-70
2022/03/19 06:57:40;;;;;;;54.60;35.90;;;;;;;10.75;46.29;99436.25;5072114;28;20178;-72
2022/03/19 07:00:06;;;;;;;58.97;37.73;;;;;;;10.81;45.97;99425.38;5064893;28;20286;-72
2022/03/19 07:02:32;;;;;;;57.03;38.77;;;;;;;10.90;46.15;99429.16;5070869;28;20205;-71
2022/03/19 07:04:58;;;;;;;55.60;38.17;;;;;;;10.91;45.40;99431.69;5071800;28;20432;-72
2022/03/19 07:07:23;;;;;;;56.83;35.33;;;;;;;10.87;45.25;99422.34;5071386;28;20194;-71
2022/03/19 07:09:49;;;;;;;54.30;37.40;;;;;;;10.98;45.31;99426.03;5072184;28;20265;-73
2022/03/19 07:12:15;;;;;;;54.43;35.03;;;;;;;11.08;44.83;99421.88;5071810;28;20247;-71
2022/03/19 07:14:41;;;;;;;66.53;36.60;;;;;;;11.15;45.46;99417.91;5066022;28;20534;-72
2022/03/19 07:17:07;;;;;;;56.13;38.30;;;;;;;11.21;45.39;99414.84;5063899;28;20274;-71
2022/03/19 07:19:33;;;;;;;51.83;36.60;;;;;;;11.22;43.81;99410.47;5055353;28;20533;-71
2022/03/19 07:21:58;;;;;;;57.63;37.33;;;;;;;11.30;43.96;99415.19;5070596;28;20421;-70
2022/03/19 07:24:24;;;;;;;53.50;34.80;;;;;;;11.23;43.70;99414.78;5067149;28;20221;-70
2022/03/19 07:26:49;;;;;;;51.53;36.13;;;;;;;11.27;43.08;99415.41;5063360;28;20186;-71
2022/03/19 07:29:18;;;;;;;62.30;37.40;;;;;;;11.14;43.00;99413.59;5071485;28;20186;-71
2022/03/19 07:31:44;;;;;;;58.50;34.80;;;;;;;11.20;43.32;99407.94;5056058;28;20300;-71
2022/03/19 07:34:10;;;;;;;55.83;35.00;;;;;;;11.17;43.02;99410.78;5060885;28;20520;-70
2022/03/19 07:36:35;;;;;;;53.63;35.57;;;;;;;10.95;43.34;99405.28;5071025;28;20436;-71
2022/03/19 07:39:01;;;;;;;52.60;35.20;;;;;;;11.09;43.07;99407.78;5069819;28;20664;-71
2022/03/19 07:44:21;;;;;;;66.07;36.53;;;;;;;11.20;42.81;99410.56;5079972;28;20268;-73
2022/03/19 07:46:47;;;;;;;47.50;33.83;;;;;;;11.25;42.72;99409.41;5088984;28;20945;-73
2022/03/19 07:49:12;;;;;;;48.37;33.97;;;;;;;11.32;42.55;99401.03;5089090;28;20228;-73
2022/03/19 07:51:38;;;;;;;52.20;33.40;;;;;;;11.45;42.02;99403.66;5089441;28;20235;-70
2022/03/19 07:54:04;;;;;;;52.97;33.23;;;;;;;11.44;41.71;99402.00;5086232;28;20213;-71
2022/03/19 07:56:29;;;;;;;55.63;34.47;;;;;;;11.48;41.92;99403.44;5088288;28;20213;-71
2022/03/19 07:58:54;;;;;;;46.80;32.83;;;;;;;11.55;41.45;99403.03;5089331;28;21195;-71
2022/03/19 08:01:20;;;;;;;46.50;33.00;;;;;;;11.69;40.86;99402.94;5088490;28;20258;-71
2022/03/19 08:03:46;;;;;;;51.53;33.73;;;;;;;11.84;41.47;99388.72;5088611;28;20209;-70
2022/03/19 08:06:11;;;;;;;47.57;30.77;;;;;;;11.94;39.95;99393.34;5088501;28;20182;-71
2022/03/19 08:08:37;;;;;;;42.60;30.43;;;;;;;11.98;39.79;99389.56;5088923;28;20668;-71
2022/03/19 08:11:03;;;;;;;46.37;31.70;;;;;;;11.91;39.33;99393.56;5088968;28;20324;-71
2022/03/19 08:13:29;;;;;;;43.87;29.43;;;;;;;11.78;38.81;99393.59;5088228;28;20189;-71
2022/03/19 08:15:55;;;;;;;40.87;29.30;;;;;;;11.66;39.23;99385.56;5066386;28;20498;-71
2022/03/19 08:18:20;;;;;;;50.90;30.20;;;;;;;11.82;38.77;99397.66;5088935;28;20431;-72
2022/03/19 08:20:46;;;;;;;46.73;31.23;;;;;;;11.74;38.81;99400.81;5079093;28;20272;-72
2022/03/19 08:23:15;;;;;;;42.83;28.63;;;;;;;12.05;38.22;99393.47;5051038;28;20210;-71
2022/03/19 08:25:41;;;;;;;48.30;29.63;;;;;;;12.26;37.60;99398.13;5071074;28;20339;-71
2022/03/19 08:28:06;;;;;;;41.70;30.00;;;;;;;12.40;37.48;99384.84;5070078;28;20501;-71
2022/03/19 08:30:32;;;;;;;42.37;28.53;;;;;;;12.60;36.52;99390.47;5069414;28;20425;-71
2022/03/19 08:32:58;;;;;;;46.37;29.10;;;;;;;12.84;36.55;99381.72;5060345;28;20178;-71
2022/03/19 08:35:23;;;;;;;45.00;28.60;;;;;;;12.88;35.45;99380.50;5069310;28;20460;-71
2022/03/19 08:40:15;;;;;;;42.43;27.77;;;;;;;13.14;35.34;99390.88;5069716;28;20597;-70
2022/03/19 08:40:34;;;;;;;40.07;27.30;;;;;;;13.40;34.47;99373.16;5068396;28;20210;-72
2022/03/19 08:42:59;;;;;;;38.73;25.90;;;;;;;13.67;34.60;99370.19;5071253;28;20482;-71
2022/03/19 08:45:26;;;;;;;41.90;28.20;;;;;;;13.78;33.60;99379.91;5071800;28;20336;-71
2022/03/19 08:47:51;;;;;;;40.07;26.57;;;;;;;13.49;33.45;99366.31;5070085;28;20658;-71
2022/03/19 08:50:18;;;;;;;39.70;26.00;;;;;;;13.36;32.90;99369.03;5070511;28;20428;-71
2022/03/19 08:52:44;;;;;;;40.00;24.90;;;;;;;13.75;33.40;99364.31;5069442;28;20271;-70
2022/03/19 08:55:10;;;;;;;36.70;25.00;;;;;;;13.86;32.44;99358.19;5066499;28;20547;-71
2022/03/19 08:57:35;;;;;;;37.03;24.70;;;;;;;13.91;31.98;99363.13;5070992;28;20175;-72
2022/03/19 09:00:01;;;;;;;33.83;25.00;;;;;;;14.04;31.23;99377.00;5068850;28;20429;-71
2022/03/19 09:02:27;;;;;;;37.00;23.87;;;;;;;14.35;31.00;99363.19;5069024;28;20404;-71
2022/03/19 09:04:52;;;;;;;37.07;25.43;;;;;;;14.21;30.92;99346.66;5069922;28;20600;-68
2022/03/19 09:07:18;;;;;;;35.13;24.30;;;;;;;14.49;31.09;99369.97;5061319;28;20187;-71
2022/03/19 09:09:44;;;;;;;42.37;24.40;;;;;;;14.47;30.66;99356.91;5063962;28;20222;-71
2022/03/19 09:12:10;;;;;;;36.63;25.63;;;;;;;14.77;30.46;99346.63;5052414;28;20190;-68
2022/03/19 09:14:35;;;;;;;34.20;24.40;;;;;;;15.10;30.82;99353.53;5064791;28;20822;-71
2022/03/19 09:17:01;;;;;;;38.80;24.30;;;;;;;15.16;30.23;99352.19;5069361;28;20182;-70
2022/03/19 09:19:28;;;;;;;37.97;24.80;;;;;;;15.41;29.80;99350.09;5053039;28;20187;-71
2022/03/19 09:21:54;;;;;;;35.03;24.97;;;;;;;15.32;29.88;99331.41;5070943;28;20186;-72
2022/03/19 09:24:20;;;;;;;32.03;23.57;;;;;;;15.54;29.99;99337.50;5066311;28;20826;-69
2022/03/19 09:26:46;;;;;;;37.70;26.53;;;;;;;15.71;29.48;99341.34;5035888;28;20437;-71
2022/03/19 09:29:14;;;;;;;34.83;25.40;;;;;;;15.49;29.69;99337.91;5073018;28;20447;-71
2022/03/19 09:31:40;;;;;;;35.93;25.27;;;;;;;15.80;29.84;99335.25;5074059;28;20184;-71
2022/03/19 09:34:06;;;;;;;34.30;24.03;;;;;;;16.09;29.37;99331.03;5073879;28;20440;-70
2022/03/19 09:36:31;;;;;;;41.10;25.13;;;;;;;16.28;29.27;99320.50;5073056;28;20470;-70
2022/03/19 09:38:57;;;;;;;35.23;26.37;;;;;;;16.36;28.43;99322.47;5073882;28;20194;-71
2022/03/19 09:41:22;;;;;;;42.70;26.47;;;;;;;16.41;28.55;99311.47;5073198;28;20603;-70
2022/03/19 09:43:48;;;;;;;37.70;26.27;;;;;;;16.66;28.73;99311.88;5055539;28;20216;-69
2022/03/19 09:46:15;;;;;;;39.53;26.10;;;;;;;16.83;28.32;99300.56;5071438;28;20197;-71
2022/03/19 09:48:40;;;;;;;37.87;26.90;;;;;;;16.78;28.27;99296.66;5073517;28;20186;-70
2022/03/19 09:51:11;;;;;;;37.10;24.83;;;;;;;16.93;28.49;99294.44;5073388;28;20504;-71
2022/03/19 09:53:37;;;;;;;35.03;25.33;;;;;;;17.04;28.48;99281.88;5070249;28;20580;-72
2022/03/19 09:56:03;;;;;;;40.53;27.53;;;;;;;16.97;28.14;99287.88;5071366;28;20441;-71
2022/03/19 09:58:29;;;;;;;42.00;26.93;;;;;;;16.87;28.03;99270.16;5072997;28;20190;-71
2022/03/19 10:01:02;;;;;;;36.23;27.50;;;;;;;16.98;28.13;99263.91;5067737;28;20451;-71
2022/03/19 10:03:27;;;;;;;37.40;27.03;;;;;;;16.95;28.21;99258.91;5072599;28;21613;-71
2022/03/19 10:08:36;;;;;;;40.73;25.97;;;;;;;16.80;28.08;99242.59;5064997;28;20181;-71
2022/03/19 10:11:12;;;;;;;36.20;26.53;;;;;;;17.17;28.25;99233.03;5073102;28;20436;-71
2022/03/19 10:13:43;;;;;;;36.43;27.23;;;;;;;17.16;28.08;99234.00;5071413;28;20204;-72
2022/03/19 10:16:09;;;;;;;36.90;26.60;;;;;;;17.34;28.46;99245.53;5067990;28;20444;-70
2022/03/19 10:18:35;;;;;;;39.07;27.37;;;;;;;17.32;28.05;99241.34;5072919;28;20759;-71
2022/03/19 10:21:03;;;;;;;37.43;27.37;;;;;;;17.46;27.82;99237.38;5072763;28;20428;-72
2022/03/19 10:23:33;;;;;;;36.40;26.50;;;;;;;17.71;27.80;99227.88;5069468;28;20510;-71
2022/03/19 10:25:59;;;;;;;37.57;24.70;;;;;;;17.87;27.23;99211.31;5072418;28;20444;-70
2022/03/19 10:28:31;;;;;;;34.30;26.63;;;;;;;17.80;27.47;99226.16;5071363;28;20423;-71
2022/03/19 10:30:57;;;;;;;37.83;26.33;;;;;;;17.80;27.24;99223.50;5038857;28;20190;-71
2022/03/19 10:33:27;;;;;;;32.93;25.73;;;;;;;17.87;26.84;99223.75;5070999;28;20432;-71
2022/03/19 10:36:09;;;;;;;38.17;27.40;;;;;;;17.94;26.83;99215.03;5070821;28;20209;-71
2022/03/19 10:38:43;;;;;;;38.80;28.03;;;;;;;17.59;26.67;99221.13;5072271;28;20440;-71
2022/03/19 10:41:09;;;;;;;35.20;26.40;;;;;;;17.77;26.75;99213.19;5072131;28;20416;-70
2022/03/19 10:43:35;;;;;;;36.67;27.30;;;;;;;17.77;26.48;99211.38;5071297;28;20479;-70
2022/03/19 10:46:02;;;;;;;39.53;26.83;;;;;;;17.89;26.53;99212.00;5072071;28;20212;-72
2022/03/19 10:48:29;;;;;;;36.27;26.80;;;;;;;17.83;26.76;99202.00;5072227;28;20190;-71
2022/03/19 10:50:55;;;;;;;38.40;28.30;;;;;;;17.73;27.34;99190.63;5072177;28;20425;-72
2022/03/19 10:53:22;;;;;;;46.90;28.27;;;;;;;17.37;27.76;99196.69;5067980;28;20430;-70
2022/03/19 10:55:48;;;;;;;40.07;28.03;;;;;;;17.66;27.66;99185.91;5070544;28;20467;-71
2022/03/19 10:58:14;;;;;;;38.33;27.20;;;;;;;17.85;27.66;99196.53;5071799;28;20429;-71
2022/03/19 11:00:41;;;;;;;39.13;29.03;;;;;;;16.83;28.11;99183.22;5054851;28;20656;-70
2022/03/19 11:03:34;;;;;;;38.10;27.60;;;;;;;17.42;28.26;99162.63;5072416;28;20206;-71
2022/03/19 11:06:06;;;;;;;39.23;29.70;;;;;;;17.56;28.19;99155.97;5071487;28;20470;-72
2022/03/19 11:08:39;;;;;;;38.53;29.40;;;;;;;17.57;28.36;99148.88;5065826;28;20425;-71
2022/03/19 11:11:10;;;;;;;40.47;29.60;;;;;;;16.99;28.91;99157.00;5068251;28;20478;-71
2022/03/19 11:13:41;;;;;;;37.10;27.53;;;;;;;17.60;29.38;99152.06;5071327;28;20540;-70
2022/03/19 11:16:09;;;;;;;43.73;29.90;;;;;;;18.20;28.75;99134.69;5050067;28;20437;-71
2022/03/19 11:18:34;;;;;;;44.43;28.37;;;;;;;18.26;28.14;99152.66;5070303;28;20515;-69
2022/03/19 11:21:00;;;;;;;37.57;26.27;;;;;;;18.60;27.52;99139.59;5078567;28;20421;-72
2022/03/19 11:23:32;;;;;;;43.83;30.00;;;;;;;18.78;27.72;99132.38;5068353;28;20574;-71
2022/03/19 11:26:01;;;;;;;35.53;25.20;;;;;;;18.81;26.48;99150.69;5069852;28;20217;-71
2022/03/19 11:28:26;;;;;;;33.20;24.10;;;;;;;18.93;27.17;99132.66;5071578;28;20911;-71
2022/03/19 11:31:08;;;;;;;34.60;24.60;;;;;;;18.68;26.43;99140.50;5070301;28;20448;-71
2022/03/19 11:33:35;;;;;;;29.63;23.40;;;;;;;18.83;26.65;99118.66;5055834;28;20189;-71
2022/03/19 11:36:01;;;;;;;35.10;23.30;;;;;;;18.86;26.16;99108.53;5070479;28;20490;-71